createdAt,value
2018-03-03T00:00:07.329Z,99.99
2018-03-03T00:01:07.306Z,99.89
2018-03-03T00:02:07.281Z,97.53
2018-03-03T00:03:07.264Z,96.87
2018-03-03T00:04:07.236Z,97.10
2018-03-03T00:05:07.230Z,98.00
2018-03-03T00:06:07.203Z,96.91
2018-03-03T00:07:07.172Z,97.39
2018-03-03T00:08:07.153Z,97.72
2018-03-03T00:09:07.127Z,98.38
2018-03-03T00:10:07.102Z,98.76
2018-03-03T00:11:07.084Z,98.47
2018-03-03T00:12:07.077Z,98.47
2018-03-03T00:13:07.035Z,98.95
2018-03-03T00:14:07.019Z,99.23
2018-03-03T00:15:06.997Z,99.42
2018-03-03T00:16:06.973Z,98.19
2018-03-03T00:17:06.952Z,98.57
2018-03-03T00:18:06.923Z,98.57
2018-03-03T00:19:06.901Z,98.19
2018-03-03T00:20:06.879Z,98.47
2018-03-03T00:21:06.867Z,98.28
2018-03-03T00:22:06.839Z,99.23
2018-03-03T00:23:06.819Z,99.33
2018-03-03T00:24:06.805Z,97.63
2018-03-03T00:25:06.767Z,98.28
2018-03-03T00:26:06.752Z,99.14
2018-03-03T00:27:06.733Z,99.99
2018-03-03T00:28:06.713Z,99.99
2018-03-03T00:29:06.680Z,98.85
2018-03-03T00:30:06.661Z,99.42
2018-03-03T00:31:06.645Z,98.66
2018-03-03T00:32:06.616Z,98.66
2018-03-03T00:33:06.589Z,99.80
2018-03-03T00:34:06.566Z,99.61
2018-03-03T00:35:06.568Z,99.42
2018-03-03T00:36:06.522Z,99.99
2018-03-03T00:37:06.517Z,99.89
2018-03-03T00:38:06.476Z,99.04
2018-03-03T00:39:06.453Z,98.47
2018-03-03T00:40:06.440Z,98.66
2018-03-03T00:41:06.424Z,98.47
2018-03-03T00:42:06.386Z,98.10
2018-03-03T00:43:06.372Z,97.06
2018-03-03T00:44:06.352Z,97.53
2018-03-03T00:45:06.335Z,98.19
2018-03-03T00:46:06.304Z,99.33
2018-03-03T00:47:06.280Z,99.89
2018-03-03T00:48:06.259Z,99.42
2018-03-03T00:49:06.229Z,99.61
2018-03-03T00:50:06.208Z,99.99
2018-03-03T00:51:06.200Z,99.99
2018-03-03T00:52:06.168Z,99.99
2018-03-03T00:53:06.148Z,99.99
2018-03-03T00:54:06.124Z,99.99
2018-03-03T00:55:06.105Z,99.99
2018-03-03T00:56:06.083Z,99.99
2018-03-03T00:57:06.054Z,99.42
2018-03-03T00:58:06.036Z,99.14
2018-03-03T00:59:06.007Z,98.85
2018-03-03T01:00:05.990Z,99.42
2018-03-03T01:01:06.011Z,99.33
2018-03-03T01:02:05.940Z,98.85
2018-03-03T01:03:05.918Z,98.38
2018-03-03T01:04:05.899Z,99.04
2018-03-03T01:05:05.888Z,99.42
2018-03-03T01:06:05.850Z,99.89
2018-03-03T01:07:05.831Z,99.89
2018-03-03T01:08:05.805Z,99.99
2018-03-03T01:09:05.795Z,99.89
2018-03-03T01:10:05.766Z,99.99
2018-03-03T01:11:05.737Z,99.99
2018-03-03T01:12:05.731Z,99.99
2018-03-03T01:13:05.699Z,99.99
2018-03-03T01:14:05.679Z,99.99
2018-03-03T01:15:05.655Z,99.99
2018-03-03T01:16:05.626Z,99.99
2018-03-03T01:17:05.613Z,99.99
2018-03-03T01:18:05.580Z,99.99
2018-03-03T01:19:05.565Z,99.71
2018-03-03T01:20:05.533Z,99.99
2018-03-03T01:21:05.520Z,99.99
2018-03-03T01:22:05.496Z,99.99
2018-03-03T01:23:05.478Z,99.71
2018-03-03T01:24:05.449Z,99.99
2018-03-03T01:25:05.430Z,99.99
2018-03-03T01:26:05.417Z,99.99
2018-03-03T01:27:05.381Z,99.99
2018-03-03T01:28:05.363Z,99.23
2018-03-03T01:29:05.340Z,98.19
2018-03-03T01:30:05.984Z,97.20
2018-03-03T01:31:05.298Z,97.39
2018-03-03T01:32:05.270Z,97.20
2018-03-03T01:33:05.260Z,97.58
2018-03-03T01:34:05.238Z,98.24
2018-03-03T01:35:05.215Z,98.61
2018-03-03T01:36:05.184Z,99.37
2018-03-03T01:37:05.168Z,99.99
2018-03-03T01:38:05.136Z,99.99
2018-03-03T01:39:05.113Z,99.99
2018-03-03T01:40:05.101Z,99.99
2018-03-03T01:41:05.071Z,99.99
2018-03-03T01:42:05.061Z,99.99
2018-03-03T01:43:05.022Z,99.99
2018-03-03T01:44:05.007Z,99.99
2018-03-03T01:45:04.978Z,99.99
2018-03-03T01:46:04.965Z,98.38
2018-03-03T01:47:04.933Z,98.00
2018-03-03T01:48:04.933Z,99.08
2018-03-03T01:49:04.893Z,99.14
2018-03-03T01:50:04.869Z,99.99
2018-03-03T01:51:04.854Z,99.99
2018-03-03T01:52:04.819Z,99.99
2018-03-03T01:53:04.800Z,99.99
2018-03-03T01:54:04.787Z,99.89
2018-03-03T01:55:04.755Z,99.61
2018-03-03T01:56:04.743Z,99.99
2018-03-03T01:57:04.713Z,99.99
2018-03-03T01:58:04.696Z,99.99
2018-03-03T01:59:04.668Z,99.80
2018-03-03T02:00:04.646Z,99.99
2018-03-03T02:01:04.629Z,98.95
2018-03-03T02:02:04.610Z,99.99
2018-03-03T02:03:04.598Z,99.52
2018-03-03T02:04:04.559Z,99.99
2018-03-03T02:05:04.534Z,99.99
2018-03-03T02:06:04.514Z,99.99
2018-03-03T02:07:04.500Z,99.99
2018-03-03T02:08:04.470Z,99.99
2018-03-03T02:09:04.446Z,99.99
2018-03-03T02:10:04.426Z,99.99
2018-03-03T02:11:04.398Z,99.99
2018-03-03T02:12:04.381Z,99.99
2018-03-03T02:13:04.383Z,99.99
2018-03-03T02:14:04.337Z,99.99
2018-03-03T02:15:04.315Z,99.99
2018-03-03T02:16:04.285Z,99.99
2018-03-03T02:17:04.272Z,99.99
2018-03-03T02:18:04.245Z,99.99
2018-03-03T02:19:04.256Z,99.99
2018-03-03T02:20:04.209Z,99.99
2018-03-03T02:21:04.174Z,99.99
2018-03-03T02:22:04.155Z,99.99
2018-03-03T02:23:04.148Z,99.99
2018-03-03T02:24:04.149Z,99.99
2018-03-03T02:25:04.084Z,99.99
2018-03-03T02:26:04.064Z,99.99
2018-03-03T02:27:04.045Z,99.99
2018-03-03T02:28:04.023Z,99.99
2018-03-03T02:29:04.010Z,99.99
2018-03-03T02:30:03.975Z,99.99
2018-03-03T02:31:03.959Z,99.99
2018-03-03T02:32:03.937Z,99.99
2018-03-03T02:33:03.908Z,99.99
2018-03-03T02:34:03.885Z,99.99
2018-03-03T02:35:03.866Z,99.99
2018-03-03T02:36:03.850Z,99.94
2018-03-03T02:37:03.821Z,99.99
2018-03-03T02:38:03.798Z,99.99
2018-03-03T02:39:03.773Z,99.99
2018-03-03T02:40:03.741Z,99.99
2018-03-03T02:41:03.734Z,99.99
2018-03-03T02:42:03.716Z,99.99
2018-03-03T02:43:03.691Z,99.99
2018-03-03T02:44:03.661Z,99.99
2018-03-03T02:45:03.648Z,99.99
2018-03-03T02:46:03.621Z,99.99
2018-03-03T02:47:03.603Z,99.99
2018-03-03T02:48:03.595Z,99.99
2018-03-03T02:49:03.552Z,99.99
2018-03-03T02:50:03.535Z,99.99
2018-03-03T02:51:03.512Z,99.99
2018-03-03T02:52:03.480Z,99.99
2018-03-03T02:53:03.468Z,99.99
2018-03-03T02:54:03.445Z,99.99
2018-03-03T02:55:03.419Z,99.99
2018-03-03T02:56:03.399Z,99.99
2018-03-03T02:57:03.378Z,99.99
2018-03-03T02:58:03.355Z,99.99
2018-03-03T02:59:03.336Z,99.99
2018-03-03T03:00:03.304Z,99.99
2018-03-03T03:01:03.290Z,99.99
2018-03-03T03:02:03.272Z,99.99
2018-03-03T03:03:03.240Z,99.99
2018-03-03T03:04:03.214Z,99.99
2018-03-03T03:05:03.199Z,98.80
2018-03-03T03:06:03.178Z,98.61
2018-03-03T03:07:03.158Z,98.61
2018-03-03T03:08:03.131Z,98.80
2018-03-03T03:09:03.113Z,99.99
2018-03-03T03:10:03.084Z,99.99
2018-03-03T03:11:03.059Z,99.99
2018-03-03T03:12:03.037Z,99.99
2018-03-03T03:13:03.015Z,99.99
2018-03-03T03:14:02.996Z,99.99
2018-03-03T03:15:02.981Z,99.99
2018-03-03T03:16:02.953Z,99.99
2018-03-03T03:17:02.928Z,99.99
2018-03-03T03:18:02.912Z,99.99
2018-03-03T03:19:02.886Z,99.99
2018-03-03T03:20:02.870Z,99.99
2018-03-03T03:21:02.835Z,99.18
2018-03-03T03:22:02.820Z,99.99
2018-03-03T03:23:02.817Z,99.99
2018-03-03T03:24:02.772Z,99.99
2018-03-03T03:25:02.746Z,99.99
2018-03-03T03:26:02.728Z,99.99
2018-03-03T03:27:02.707Z,99.99
2018-03-03T03:28:02.684Z,99.99
2018-03-03T03:29:02.658Z,99.99
2018-03-03T03:30:02.643Z,99.99
2018-03-03T03:31:02.617Z,99.99
2018-03-03T03:32:02.594Z,99.99
2018-03-03T03:33:02.569Z,99.99
2018-03-03T03:34:02.556Z,99.99
2018-03-03T03:35:02.530Z,99.99
2018-03-03T03:36:02.505Z,99.99
2018-03-03T03:37:02.484Z,99.99
2018-03-03T03:38:02.457Z,99.99
2018-03-03T03:39:02.439Z,99.99
2018-03-03T03:40:02.424Z,99.99
2018-03-03T03:41:02.396Z,99.99
2018-03-03T03:42:02.371Z,99.99
2018-03-03T03:43:02.346Z,99.99
2018-03-03T03:44:02.323Z,99.99
2018-03-03T03:45:02.301Z,99.99
2018-03-03T03:46:02.281Z,99.99
2018-03-03T03:47:02.256Z,99.99
2018-03-03T03:48:02.240Z,99.99
2018-03-03T03:49:02.217Z,99.99
2018-03-03T03:50:02.214Z,99.99
2018-03-03T03:51:02.173Z,99.99
2018-03-03T03:52:02.147Z,97.96
2018-03-03T03:53:02.125Z,99.46
2018-03-03T03:54:02.099Z,99.99
2018-03-03T03:55:02.078Z,99.99
2018-03-03T03:56:02.059Z,99.99
2018-03-03T03:57:02.034Z,99.99
2018-03-03T03:58:02.020Z,99.99
2018-03-03T03:59:02.001Z,99.99
2018-03-03T04:00:01.972Z,99.99
2018-03-03T04:01:01.944Z,99.99
2018-03-03T04:02:01.925Z,99.99
2018-03-03T04:03:01.906Z,99.99
2018-03-03T04:04:01.877Z,99.99
2018-03-03T04:05:01.860Z,99.99
2018-03-03T04:06:01.832Z,99.99
2018-03-03T04:07:01.821Z,99.99
2018-03-03T04:08:01.790Z,99.99
2018-03-03T04:09:01.764Z,99.99
2018-03-03T04:10:01.751Z,99.61
2018-03-03T04:11:01.720Z,98.57
2018-03-03T04:12:01.697Z,99.61
2018-03-03T04:13:01.675Z,99.99
2018-03-03T04:14:01.658Z,99.99
2018-03-03T04:15:01.633Z,99.99
2018-03-03T04:16:01.607Z,99.99
2018-03-03T04:17:01.599Z,99.99
2018-03-03T04:18:01.572Z,99.99
2018-03-03T04:19:01.546Z,99.99
2018-03-03T04:20:01.522Z,99.99
2018-03-03T04:21:01.505Z,99.99
2018-03-03T04:22:01.483Z,99.99
2018-03-03T04:23:01.468Z,99.99
2018-03-03T04:24:01.440Z,99.99
2018-03-03T04:25:01.410Z,99.99
2018-03-03T04:26:01.390Z,99.99
2018-03-03T04:27:01.369Z,99.99
2018-03-03T04:28:01.341Z,99.99
2018-03-03T04:29:01.327Z,99.99
2018-03-03T04:30:01.302Z,99.99
2018-03-03T04:31:01.284Z,99.99
2018-03-03T04:32:01.266Z,99.99
2018-03-03T04:33:01.231Z,99.99
2018-03-03T04:34:01.215Z,99.99
2018-03-03T04:35:01.186Z,99.99
2018-03-03T04:36:01.163Z,99.99
2018-03-03T04:37:01.154Z,99.99
2018-03-03T04:38:01.119Z,99.99
2018-03-03T04:39:01.096Z,99.99
2018-03-03T04:40:01.071Z,99.99
2018-03-03T04:41:01.071Z,99.99
2018-03-03T04:42:01.026Z,99.89
2018-03-03T04:43:01.013Z,99.04
2018-03-03T04:44:00.988Z,99.99
2018-03-03T04:45:00.969Z,99.99
2018-03-03T04:46:00.936Z,99.99
2018-03-03T04:47:00.919Z,99.99
2018-03-03T04:48:00.892Z,99.99
2018-03-03T04:49:00.873Z,99.99
2018-03-03T04:50:00.850Z,99.99
2018-03-03T04:51:00.828Z,99.99
2018-03-03T04:52:00.808Z,99.99
2018-03-03T04:53:00.786Z,99.99
2018-03-03T04:54:00.757Z,99.99
2018-03-03T04:55:00.741Z,99.99
2018-03-03T04:56:00.716Z,99.46
2018-03-03T04:57:00.698Z,99.18
2018-03-03T04:58:00.676Z,98.99
2018-03-03T04:59:00.647Z,99.08
2018-03-03T05:00:00.623Z,99.18
2018-03-03T05:01:00.602Z,99.99
2018-03-03T05:02:00.579Z,99.99
2018-03-03T05:03:00.566Z,99.99
2018-03-03T05:04:00.537Z,99.99
2018-03-03T05:05:00.518Z,99.99
2018-03-03T05:06:00.492Z,99.94
2018-03-03T05:07:00.468Z,99.75
2018-03-03T05:08:00.455Z,99.99
2018-03-03T05:09:00.423Z,99.99
2018-03-03T05:10:00.400Z,99.99
2018-03-03T05:11:00.385Z,99.84
2018-03-03T05:12:00.359Z,99.99
2018-03-03T05:13:00.334Z,99.99
2018-03-03T05:14:00.308Z,99.99
2018-03-03T05:15:00.295Z,99.99
2018-03-03T05:16:00.268Z,99.99
2018-03-03T05:17:00.246Z,99.99
2018-03-03T05:18:00.237Z,99.99
2018-03-03T05:19:00.207Z,99.99
2018-03-03T05:20:00.188Z,99.99
2018-03-03T05:21:00.169Z,99.99
2018-03-03T05:22:00.138Z,98.33
2018-03-03T05:23:00.118Z,98.61
2018-03-03T05:24:00.087Z,99.18
2018-03-03T05:25:00.068Z,99.99
2018-03-03T05:26:00.049Z,99.99
2018-03-03T05:27:00.030Z,99.99
2018-03-03T05:28:00.001Z,99.99
2018-03-03T05:28:59.979Z,99.99
2018-03-03T05:29:59.962Z,99.99
2018-03-03T05:30:59.947Z,99.99
2018-03-03T05:31:59.914Z,99.99
2018-03-03T05:32:59.888Z,99.99
2018-03-03T05:33:59.875Z,99.99
2018-03-03T05:34:59.843Z,99.99
2018-03-03T05:35:59.824Z,99.99
2018-03-03T05:36:59.806Z,99.99
2018-03-03T05:37:59.785Z,99.99
2018-03-03T05:38:59.754Z,99.99
2018-03-03T05:39:59.735Z,99.99
2018-03-03T05:40:59.712Z,99.99
2018-03-03T05:41:59.694Z,99.99
2018-03-03T05:42:59.669Z,99.99
2018-03-03T05:43:59.650Z,99.99
2018-03-03T05:44:59.620Z,99.99
2018-03-03T05:45:59.598Z,99.99
2018-03-03T05:46:59.579Z,99.99
2018-03-03T05:47:59.560Z,99.99
2018-03-03T05:48:59.535Z,99.99
2018-03-03T05:49:59.509Z,99.99
2018-03-03T05:50:59.492Z,99.99
2018-03-03T05:51:59.483Z,99.99
2018-03-03T05:52:59.441Z,99.99
2018-03-03T05:53:59.418Z,99.99
2018-03-03T05:54:59.400Z,99.99
2018-03-03T05:55:59.380Z,99.99
2018-03-03T05:56:59.356Z,99.99
2018-03-03T05:57:59.330Z,99.99
2018-03-03T05:58:59.317Z,99.99
2018-03-03T05:59:59.310Z,99.99
2018-03-03T06:00:59.297Z,99.99
2018-03-03T06:01:59.252Z,99.99
2018-03-03T06:02:59.236Z,99.99
2018-03-03T06:03:59.196Z,99.99
2018-03-03T06:04:59.186Z,99.99
2018-03-03T06:05:59.156Z,99.99
2018-03-03T06:06:59.140Z,99.99
2018-03-03T06:07:59.115Z,99.99
2018-03-03T06:08:59.085Z,99.99
2018-03-03T06:09:59.069Z,99.99
2018-03-03T06:10:59.038Z,99.99
2018-03-03T06:11:59.025Z,99.84
2018-03-03T06:12:59.002Z,99.94
2018-03-03T06:13:59.006Z,99.99
2018-03-03T06:14:58.957Z,99.99
2018-03-03T06:15:58.934Z,99.99
2018-03-03T06:16:58.913Z,99.99
2018-03-03T06:17:58.889Z,99.99
2018-03-03T06:18:58.862Z,99.99
2018-03-03T06:19:58.844Z,99.99
2018-03-03T06:20:58.821Z,99.99
2018-03-03T06:21:58.850Z,99.99
2018-03-03T06:22:58.773Z,99.99
2018-03-03T06:23:58.750Z,99.99
2018-03-03T06:24:58.731Z,99.61
2018-03-03T06:25:58.716Z,99.56
2018-03-03T06:26:58.698Z,99.84
2018-03-03T06:27:58.667Z,99.99
2018-03-03T06:28:58.639Z,99.99
2018-03-03T06:29:58.617Z,99.99
2018-03-03T06:30:58.607Z,99.99
2018-03-03T06:31:58.587Z,99.99
2018-03-03T06:32:58.553Z,99.99
2018-03-03T06:33:58.527Z,99.99
2018-03-03T06:34:58.512Z,99.84
2018-03-03T06:35:58.537Z,99.99
2018-03-03T06:36:58.460Z,99.99
2018-03-03T06:37:58.447Z,99.99
2018-03-03T06:38:58.425Z,99.99
2018-03-03T06:39:58.406Z,99.99
2018-03-03T06:40:58.370Z,99.99
2018-03-03T06:41:58.351Z,99.99
2018-03-03T06:42:58.332Z,99.99
2018-03-03T06:43:58.303Z,99.99
2018-03-03T06:44:58.285Z,99.99
2018-03-03T06:45:58.260Z,99.99
2018-03-03T06:46:58.237Z,99.99
2018-03-03T06:47:58.216Z,99.99
2018-03-03T06:48:58.196Z,99.99
2018-03-03T06:49:58.175Z,99.99
2018-03-03T06:50:58.151Z,99.99
2018-03-03T06:51:58.131Z,99.99
2018-03-03T06:52:58.116Z,99.99
2018-03-03T06:53:58.094Z,99.99
2018-03-03T06:54:58.078Z,99.99
2018-03-03T06:55:58.043Z,99.99
2018-03-03T06:56:58.029Z,99.99
2018-03-03T06:57:57.997Z,99.99
2018-03-03T06:58:57.982Z,99.99
2018-03-03T06:59:57.957Z,99.99
2018-03-03T07:00:57.927Z,99.99
2018-03-03T07:01:57.905Z,99.99
2018-03-03T07:02:57.881Z,99.99
2018-03-03T07:03:57.881Z,99.99
2018-03-03T07:04:57.840Z,99.99
2018-03-03T07:05:57.817Z,99.99
2018-03-03T07:06:57.798Z,99.99
2018-03-03T07:07:57.779Z,99.99
2018-03-03T07:08:57.747Z,99.99
2018-03-03T07:09:57.725Z,99.99
2018-03-03T07:10:57.712Z,99.99
2018-03-03T07:11:57.687Z,99.99
2018-03-03T07:12:57.659Z,99.99
2018-03-03T07:13:57.633Z,99.99
2018-03-03T07:14:57.620Z,99.99
2018-03-03T07:15:57.604Z,99.99
2018-03-03T07:16:57.573Z,99.99
2018-03-03T07:17:57.558Z,99.99
2018-03-03T07:18:57.528Z,99.99
2018-03-03T07:19:57.508Z,99.99
2018-03-03T07:20:57.479Z,99.99
2018-03-03T07:21:57.463Z,99.99
2018-03-03T07:22:57.440Z,99.99
2018-03-03T07:23:57.412Z,99.99
2018-03-03T07:24:57.396Z,99.99
2018-03-03T07:25:57.366Z,99.99
2018-03-03T07:26:57.347Z,99.99
2018-03-03T07:27:57.324Z,99.99
2018-03-03T07:28:57.309Z,99.99
2018-03-03T07:29:57.292Z,99.99
2018-03-03T07:30:57.260Z,99.99
2018-03-03T07:31:57.247Z,99.99
2018-03-03T07:32:57.227Z,99.80
2018-03-03T07:33:57.189Z,99.99
2018-03-03T07:34:57.180Z,99.99
2018-03-03T07:35:57.157Z,99.99
2018-03-03T07:36:57.130Z,99.99
2018-03-03T07:37:57.103Z,99.99
2018-03-03T07:38:57.090Z,99.99
2018-03-03T07:39:57.067Z,99.99
2018-03-03T07:40:57.036Z,99.61
2018-03-03T07:41:57.026Z,98.95
2018-03-03T07:42:57.053Z,98.85
2018-03-03T07:43:56.969Z,98.85
2018-03-03T07:44:56.952Z,99.14
2018-03-03T07:45:56.930Z,99.04
2018-03-03T07:46:56.930Z,99.14
2018-03-03T07:47:56.905Z,98.47
2018-03-03T07:48:56.866Z,99.14
2018-03-03T07:49:56.852Z,98.47
2018-03-03T07:50:56.823Z,98.57
2018-03-03T07:51:56.796Z,98.71
2018-03-03T07:52:56.782Z,99.00
2018-03-03T07:53:56.770Z,98.71
2018-03-03T07:54:56.738Z,98.24
2018-03-03T07:55:56.718Z,98.14
2018-03-03T07:56:56.695Z,97.39
2018-03-03T07:57:56.670Z,98.71
2018-03-03T07:58:56.650Z,99.28
2018-03-03T07:59:56.638Z,98.14
2018-03-03T08:00:56.602Z,98.71
2018-03-03T08:01:56.583Z,98.05
2018-03-03T08:02:56.564Z,97.77
2018-03-03T08:03:56.541Z,97.39
2018-03-03T08:04:56.522Z,96.73
2018-03-03T08:05:56.503Z,97.11
2018-03-03T08:06:56.486Z,98.24
2018-03-03T08:07:56.453Z,98.33
2018-03-03T08:08:56.431Z,97.96
2018-03-03T08:09:56.422Z,97.39
2018-03-03T08:10:56.425Z,98.05
2018-03-03T08:11:56.368Z,98.14
2018-03-03T08:12:56.351Z,97.11
2018-03-03T08:13:56.320Z,95.59
2018-03-03T08:14:56.297Z,96.54
2018-03-03T08:15:56.284Z,97.11
2018-03-03T08:16:56.265Z,98.14
2018-03-03T08:17:56.236Z,97.20
2018-03-03T08:18:56.226Z,96.21
2018-03-03T08:19:56.189Z,95.45
2018-03-03T08:20:56.193Z,94.98
2018-03-03T08:21:56.159Z,94.98
2018-03-03T08:22:56.134Z,95.07
2018-03-03T08:23:56.108Z,94.98
2018-03-03T08:24:56.093Z,95.45
2018-03-03T08:25:56.074Z,95.36
2018-03-03T08:26:56.054Z,94.70
2018-03-03T08:27:56.030Z,95.17
2018-03-03T08:28:56.032Z,95.36
2018-03-03T08:29:55.996Z,95.07
2018-03-03T08:30:55.980Z,93.94
2018-03-03T08:31:55.958Z,93.85
2018-03-03T08:32:55.917Z,94.60
2018-03-03T08:33:55.895Z,94.70
2018-03-03T08:34:55.879Z,93.94
2018-03-03T08:35:55.854Z,93.94
2018-03-03T08:36:55.847Z,95.07
2018-03-03T08:37:55.815Z,94.98
2018-03-03T08:38:55.790Z,95.74
2018-03-03T08:39:55.786Z,94.89
2018-03-03T08:40:55.751Z,94.79
2018-03-03T08:41:55.742Z,95.36
2018-03-03T08:42:55.726Z,93.09
2018-03-03T08:43:55.711Z,94.13
2018-03-03T08:44:55.665Z,94.23
2018-03-03T08:45:55.660Z,94.04
2018-03-03T08:46:55.634Z,91.96
2018-03-03T08:47:55.610Z,93.09
2018-03-03T08:48:55.589Z,95.55
2018-03-03T08:49:55.558Z,95.74
2018-03-03T08:50:55.551Z,96.02
2018-03-03T08:51:55.528Z,94.79
2018-03-03T08:52:55.507Z,96.50
2018-03-03T08:53:55.485Z,96.50
2018-03-03T08:54:55.479Z,96.78
2018-03-03T08:55:55.439Z,96.31
2018-03-03T08:56:55.425Z,97.63
2018-03-03T08:57:55.407Z,97.06
2018-03-03T08:58:55.375Z,96.02
2018-03-03T08:59:55.356Z,96.78
2018-03-03T09:00:55.362Z,96.21
2018-03-03T09:01:55.328Z,95.17
2018-03-03T09:02:55.305Z,96.50
2018-03-03T09:03:55.271Z,97.82
2018-03-03T09:04:55.257Z,98.67
2018-03-03T09:05:55.240Z,97.63
2018-03-03T09:06:55.222Z,96.31
2018-03-03T09:07:55.204Z,95.74
2018-03-03T09:08:55.169Z,95.17
2018-03-03T09:09:55.152Z,94.98
2018-03-03T09:10:55.138Z,95.55
2018-03-03T09:11:55.120Z,96.78
2018-03-03T09:12:55.087Z,94.79
2018-03-03T09:13:55.061Z,95.55
2018-03-03T09:14:55.046Z,95.93
2018-03-03T09:15:55.027Z,96.12
2018-03-03T09:16:55.020Z,95.55
2018-03-03T09:17:54.978Z,95.74
2018-03-03T09:18:54.961Z,95.26
2018-03-03T09:19:54.940Z,94.42
2018-03-03T09:20:54.951Z,94.74
2018-03-03T09:21:54.896Z,94.37
2018-03-03T09:22:54.921Z,93.89
2018-03-03T09:23:54.864Z,94.65
2018-03-03T09:24:54.845Z,94.46
2018-03-03T09:25:54.839Z,95.21
2018-03-03T09:26:54.810Z,96.07
2018-03-03T09:27:54.771Z,95.93
2018-03-03T09:28:54.757Z,95.88
2018-03-03T09:29:54.733Z,94.60
2018-03-03T09:30:54.741Z,95.36
2018-03-03T09:31:54.693Z,95.26
2018-03-03T09:32:54.687Z,94.79
2018-03-03T09:33:54.770Z,94.98
2018-03-03T09:34:54.662Z,95.07
2018-03-03T09:35:54.649Z,95.40
2018-03-03T09:36:54.600Z,95.21
2018-03-03T09:37:54.585Z,96.02
2018-03-03T09:38:54.549Z,97.16
2018-03-03T09:39:54.533Z,95.17
2018-03-03T09:40:54.511Z,95.74
2018-03-03T09:41:54.487Z,95.17
2018-03-03T09:42:54.484Z,96.02
2018-03-03T09:43:54.443Z,96.35
2018-03-03T09:44:54.427Z,95.97
2018-03-03T09:45:54.418Z,95.78
2018-03-03T09:46:54.392Z,96.54
2018-03-03T09:47:54.366Z,96.69
2018-03-03T09:48:54.353Z,97.16
2018-03-03T09:49:54.334Z,96.02
2018-03-03T09:50:54.325Z,96.59
2018-03-03T09:51:54.302Z,96.78
2018-03-03T09:52:54.266Z,96.40
2018-03-03T09:53:54.244Z,97.25
2018-03-03T09:54:54.225Z,96.59
2018-03-03T09:55:54.312Z,97.25
2018-03-03T09:56:54.199Z,97.39
2018-03-03T09:57:54.179Z,97.49
2018-03-03T09:58:54.198Z,96.92
2018-03-03T09:59:54.122Z,95.88
2018-03-03T10:00:54.112Z,95.40
2018-03-03T10:02:05.923Z,95.59
2018-03-03T10:02:54.067Z,96.07
2018-03-03T10:03:54.042Z,96.54
2018-03-03T10:04:54.035Z,95.59
2018-03-03T10:05:54.013Z,95.03
2018-03-03T10:06:53.988Z,94.32
2018-03-03T10:07:53.966Z,94.51
2018-03-03T10:08:53.953Z,94.74
2018-03-03T10:09:53.937Z,95.21
2018-03-03T10:10:54.003Z,94.84
2018-03-03T10:11:53.890Z,94.56
2018-03-03T10:12:53.869Z,95.83
2018-03-03T10:13:53.850Z,95.40
2018-03-03T10:14:53.830Z,95.12
2018-03-03T10:15:53.815Z,94.98
2018-03-03T10:16:53.801Z,94.98
2018-03-03T10:17:53.766Z,94.32
2018-03-03T10:18:53.747Z,93.56
2018-03-03T10:19:53.728Z,92.05
2018-03-03T10:20:53.706Z,92.33
2018-03-03T10:21:53.711Z,92.33
2018-03-03T10:22:53.663Z,92.33
2018-03-03T10:23:53.650Z,92.80
2018-03-03T10:24:53.631Z,92.61
2018-03-03T10:25:53.614Z,90.53
2018-03-03T10:26:53.602Z,91.29
2018-03-03T10:27:53.580Z,90.86
2018-03-03T10:28:53.568Z,92.10
2018-03-03T10:29:53.528Z,92.47
2018-03-03T10:30:53.516Z,94.74
2018-03-03T10:31:53.497Z,95.26
2018-03-03T10:32:53.498Z,95.93
2018-03-03T10:33:53.465Z,92.52
2018-03-03T10:34:53.448Z,92.14
2018-03-03T10:35:53.420Z,92.43
2018-03-03T10:36:53.435Z,92.47
2018-03-03T10:37:53.398Z,94.70
2018-03-03T10:38:53.366Z,92.85
2018-03-03T10:39:53.352Z,91.91
2018-03-03T10:40:53.333Z,91.62
2018-03-03T10:41:53.308Z,93.70
2018-03-03T10:42:53.295Z,95.97
2018-03-03T10:43:53.267Z,96.31
2018-03-03T10:44:53.242Z,94.42
2018-03-03T10:45:53.243Z,91.57
2018-03-03T10:46:53.216Z,91.43
2018-03-03T10:47:53.216Z,92.00
2018-03-03T10:48:53.177Z,94.04
2018-03-03T10:49:53.161Z,94.89
2018-03-03T10:50:53.142Z,95.83
2018-03-03T10:51:53.132Z,95.31
2018-03-03T10:52:53.098Z,93.99
2018-03-03T10:53:53.081Z,89.63
2018-03-03T10:54:53.075Z,89.77
2018-03-03T10:55:53.050Z,89.68
2018-03-03T10:56:53.031Z,91.38
2018-03-03T10:57:53.034Z,92.14
2018-03-03T10:58:53.006Z,93.08
2018-03-03T10:59:52.986Z,94.51
2018-03-03T11:00:52.960Z,95.88
2018-03-03T11:01:52.941Z,95.50
2018-03-03T11:02:52.919Z,94.27
2018-03-03T11:03:52.921Z,93.61
2018-03-03T11:04:52.909Z,91.62
2018-03-03T11:05:52.866Z,92.09
2018-03-03T11:06:52.865Z,92.94
2018-03-03T11:07:52.830Z,92.14
2018-03-03T11:08:52.818Z,89.44
2018-03-03T11:09:52.798Z,88.68
2018-03-03T11:10:52.795Z,88.96
2018-03-03T11:11:52.765Z,90.48
2018-03-03T11:12:52.748Z,93.18
2018-03-03T11:13:52.728Z,91.57
2018-03-03T11:14:52.718Z,90.62
2018-03-03T11:15:52.695Z,91.57
2018-03-03T11:16:52.687Z,91.19
2018-03-03T11:17:52.666Z,90.72
2018-03-03T11:18:52.655Z,91.19
2018-03-03T11:19:52.628Z,88.63
2018-03-03T11:20:52.617Z,87.77
2018-03-03T11:21:52.601Z,91.19
2018-03-03T11:22:52.569Z,88.54
2018-03-03T11:23:52.546Z,87.92
2018-03-03T11:24:52.541Z,91.28
2018-03-03T11:25:52.528Z,92.71
2018-03-03T11:26:52.502Z,94.98
2018-03-03T11:27:52.487Z,95.03
2018-03-03T11:28:52.495Z,92.18
2018-03-03T11:29:52.453Z,91.61
2018-03-03T11:30:52.453Z,92.18
2018-03-03T11:31:52.420Z,91.00
2018-03-03T11:32:52.420Z,87.54
2018-03-03T11:33:52.402Z,86.59
2018-03-03T11:34:52.376Z,88.16
2018-03-03T11:35:52.379Z,89.77
2018-03-03T11:36:52.344Z,89.58
2018-03-03T11:37:52.324Z,91.47
2018-03-03T11:38:52.309Z,92.38
2018-03-03T11:39:52.290Z,90.29
2018-03-03T11:40:52.278Z,90.95
2018-03-03T11:41:52.275Z,90.76
2018-03-03T11:42:52.239Z,91.71
2018-03-03T11:43:52.230Z,89.15
2018-03-03T11:44:52.214Z,90.90
2018-03-03T11:45:52.201Z,89.53
2018-03-03T11:46:52.182Z,90.24
2018-03-03T11:47:52.175Z,90.90
2018-03-03T11:48:52.166Z,90.14
2018-03-03T11:49:52.137Z,89.86
2018-03-03T11:50:52.113Z,85.97
2018-03-03T11:51:52.105Z,84.78
2018-03-03T11:52:52.082Z,88.87
2018-03-03T11:53:52.076Z,89.10
2018-03-03T11:54:52.046Z,90.14
2018-03-03T11:55:52.038Z,89.95
2018-03-03T11:56:52.025Z,88.15
2018-03-03T11:57:52.009Z,89.48
2018-03-03T11:58:51.988Z,86.44
2018-03-03T11:59:51.979Z,86.91
2018-03-03T12:00:51.960Z,85.97
2018-03-03T12:01:51.951Z,83.08
2018-03-03T12:02:51.922Z,87.45
2018-03-03T12:03:51.912Z,88.01
2018-03-03T12:04:51.928Z,85.74
2018-03-03T12:05:51.880Z,84.84
2018-03-03T12:06:51.868Z,86.26
2018-03-03T12:07:51.857Z,90.38
2018-03-03T12:08:51.835Z,91.42
2018-03-03T12:09:51.816Z,89.15
2018-03-03T12:10:51.793Z,89.39
2018-03-03T12:11:51.783Z,87.68
2018-03-03T12:12:51.767Z,88.24
2018-03-03T12:13:51.752Z,86.63
2018-03-03T12:14:51.733Z,88.06
2018-03-03T12:15:51.723Z,88.06
2018-03-03T12:16:51.710Z,88.43
2018-03-03T12:17:51.690Z,84.64
2018-03-03T12:18:51.688Z,83.31
2018-03-03T12:19:51.658Z,84.64
2018-03-03T12:20:51.659Z,86.68
2018-03-03T12:21:51.633Z,85.83
2018-03-03T12:22:51.630Z,84.22
2018-03-03T12:23:51.601Z,84.31
2018-03-03T12:24:51.578Z,85.36
2018-03-03T12:25:51.569Z,84.65
2018-03-03T12:26:51.551Z,85.69
2018-03-03T12:27:51.541Z,85.41
2018-03-03T12:28:51.539Z,88.16
2018-03-03T12:29:51.493Z,90.24
2018-03-03T12:30:51.482Z,88.10
2018-03-03T12:31:51.473Z,89.25
2018-03-03T12:32:51.450Z,89.06
2018-03-03T12:33:51.432Z,88.01
2018-03-03T12:34:51.425Z,85.17
2018-03-03T12:35:51.402Z,83.70
2018-03-03T12:36:51.387Z,87.68
2018-03-03T12:37:51.383Z,87.97
2018-03-03T12:38:51.351Z,86.93
2018-03-03T12:39:51.338Z,84.80
2018-03-03T12:40:51.317Z,86.88
2018-03-03T12:41:51.303Z,88.25
2018-03-03T12:42:51.276Z,89.77
2018-03-03T12:43:51.283Z,87.12
2018-03-03T12:44:51.244Z,88.16
2018-03-03T12:45:51.253Z,89.39
2018-03-03T12:46:51.225Z,89.77
2018-03-03T12:47:51.193Z,87.59
2018-03-03T12:48:51.187Z,87.59
2018-03-03T12:49:51.171Z,87.49
2018-03-03T12:50:51.156Z,85.88
2018-03-03T12:51:51.151Z,86.35